sensor_id;sensor_type;location;lat;lon;timestamp;pressure;altitude;pressure_sealevel;temperature;humidity
4735;BME280;2381;50.676;12.612;2022-10-16T00:00:54;97399.69;;;15.06;100.00
4735;BME280;2381;50.676;12.612;2022-10-16T00:03:59;97396.63;;;15.09;100.00
4735;BME280;2381;50.676;12.612;2022-10-16T00:07:03;97398.03;;;15.11;100.00
4735;BME280;2381;50.676;12.612;2022-10-16T00:10:06;97411.13;;;15.06;100.00
4735;BME280;2381;50.676;12.612;2022-10-16T00:13:09;97416.22;;;15.08;100.00
4735;BME280;2381;50.676;12.612;2022-10-16T00:16:12;97426.00;;;15.07;100.00
4735;BME280;2381;50.676;12.612;2022-10-16T00:19:16;97431.13;;;15.09;100.00
4735;BME280;2381;50.676;12.612;2022-10-16T00:22:19;97427.03;;;15.06;100.00
4735;BME280;2381;50.676;12.612;2022-10-16T00:25:22;97440.31;;;15.06;100.00
4735;BME280;2381;50.676;12.612;2022-10-16T00:28:24;97459.06;;;15.05;100.00
4735;BME280;2381;50.676;12.612;2022-10-16T00:31:27;97465.81;;;15.07;100.00
4735;BME280;2381;50.676;12.612;2022-10-16T00:34:32;97470.69;;;15.10;100.00
4735;BME280;2381;50.676;12.612;2022-10-16T00:37:35;97474.56;;;15.14;100.00
4735;BME280;2381;50.676;12.612;2022-10-16T00:40:37;97473.31;;;15.17;100.00
4735;BME280;2381;50.676;12.612;2022-10-16T00:43:41;97465.59;;;15.15;100.00
4735;BME280;2381;50.676;12.612;2022-10-16T00:46:44;97469.28;;;15.14;100.00
4735;BME280;2381;50.676;12.612;2022-10-16T00:49:48;97476.59;;;15.12;100.00
4735;BME280;2381;50.676;12.612;2022-10-16T00:52:52;97479.25;;;15.12;100.00
4735;BME280;2381;50.676;12.612;2022-10-16T00:55:57;97474.97;;;15.11;100.00
4735;BME280;2381;50.676;12.612;2022-10-16T00:59:00;97486.81;;;15.15;100.00
4735;BME280;2381;50.676;12.612;2022-10-16T01:02:04;97487.63;;;15.09;100.00
4735;BME280;2381;50.676;12.612;2022-10-16T01:05:09;97487.63;;;15.09;100.00
4735;BME280;2381;50.676;12.612;2022-10-16T01:08:12;97495.16;;;15.12;100.00
4735;BME280;2381;50.676;12.612;2022-10-16T01:11:17;97494.97;;;15.14;100.00
4735;BME280;2381;50.676;12.612;2022-10-16T01:14:22;97488.44;;;15.16;100.00
4735;BME280;2381;50.676;12.612;2022-10-16T01:17:31;97480.28;;;15.11;100.00
4735;BME280;2381;50.676;12.612;2022-10-16T01:20:39;97478.25;;;15.13;100.00
4735;BME280;2381;50.676;12.612;2022-10-16T01:23:47;97462.94;;;15.15;100.00
4735;BME280;2381;50.676;12.612;2022-10-16T01:27:04;97465.00;;;15.13;100.00
4735;BME280;2381;50.676;12.612;2022-10-16T01:30:09;97461.09;;;15.09;100.00
4735;BME280;2381;50.676;12.612;2022-10-16T01:33:16;97452.13;;;15.10;100.00
4735;BME280;2381;50.676;12.612;2022-10-16T01:36:23;97444.38;;;15.09;100.00
4735;BME280;2381;50.676;12.612;2022-10-16T01:39:28;97449.88;;;15.07;100.00
4735;BME280;2381;50.676;12.612;2022-10-16T01:42:35;97444.59;;;15.07;100.00
4735;BME280;2381;50.676;12.612;2022-10-16T01:45:39;97441.94;;;15.01;100.00
4735;BME280;2381;50.676;12.612;2022-10-16T01:48:44;97430.50;;;15.00;100.00
4735;BME280;2381;50.676;12.612;2022-10-16T01:51:47;97435.03;;;14.93;100.00
4735;BME280;2381;50.676;12.612;2022-10-16T01:54:52;97442.34;;;14.91;100.00
4735;BME280;2381;50.676;12.612;2022-10-16T01:57:57;97429.72;;;14.93;100.00
4735;BME280;2381;50.676;12.612;2022-10-16T02:01:02;97431.75;;;14.91;100.00
4735;BME280;2381;50.676;12.612;2022-10-16T02:04:09;97440.97;;;14.82;100.00
4735;BME280;2381;50.676;12.612;2022-10-16T02:07:15;97449.09;;;14.94;100.00
4735;BME280;2381;50.676;12.612;2022-10-16T02:10:18;97446.84;;;14.97;100.00
4735;BME280;2381;50.676;12.612;2022-10-16T02:13:23;97447.69;;;14.98;100.00
4735;BME280;2381;50.676;12.612;2022-10-16T02:16:32;97445.00;;;15.04;100.00
4735;BME280;2381;50.676;12.612;2022-10-16T02:19:36;97432.97;;;15.02;100.00
4735;BME280;2381;50.676;12.612;2022-10-16T02:22:39;97439.06;;;15.02;100.00
4735;BME280;2381;50.676;12.612;2022-10-16T02:25:43;97438.69;;;15.05;100.00
4735;BME280;2381;50.676;12.612;2022-10-16T02:28:51;97431.91;;;15.09;100.00
4735;BME280;2381;50.676;12.612;2022-10-16T02:31:56;97428.47;;;15.02;100.00
4735;BME280;2381;50.676;12.612;2022-10-16T02:35:00;97436.59;;;15.14;100.00
4735;BME280;2381;50.676;12.612;2022-10-16T02:38:04;97438.63;;;15.18;100.00
4735;BME280;2381;50.676;12.612;2022-10-16T02:41:07;97429.25;;;15.16;100.00
4735;BME280;2381;50.676;12.612;2022-10-16T02:44:11;97429.50;;;15.08;100.00
4735;BME280;2381;50.676;12.612;2022-10-16T02:47:14;97431.31;;;15.07;100.00
4735;BME280;2381;50.676;12.612;2022-10-16T02:50:17;97432.34;;;15.06;100.00
4735;BME280;2381;50.676;12.612;2022-10-16T02:53:20;97430.91;;;15.10;100.00
4735;BME280;2381;50.676;12.612;2022-10-16T02:56:22;97438.25;;;15.08;100.00
4735;BME280;2381;50.676;12.612;2022-10-16T02:59:26;97436.22;;;15.04;100.00
4735;BME280;2381;50.676;12.612;2022-10-16T03:02:29;97437.06;;;15.04;100.00
4735;BME280;2381;50.676;12.612;2022-10-16T03:05:32;97438.06;;;15.03;100.00
4735;BME280;2381;50.676;12.612;2022-10-16T03:08:34;97436.25;;;14.97;100.00
4735;BME280;2381;50.676;12.612;2022-10-16T03:11:37;97435.63;;;14.95;100.00
4735;BME280;2381;50.676;12.612;2022-10-16T03:14:41;97451.53;;;14.95;100.00
4735;BME280;2381;50.676;12.612;2022-10-16T03:17:44;97450.94;;;14.93;100.00
4735;BME280;2381;50.676;12.612;2022-10-16T03:20:46;97448.91;;;14.95;100.00
4735;BME280;2381;50.676;12.612;2022-10-16T03:23:49;97434.78;;;15.01;100.00
4735;BME280;2381;50.676;12.612;2022-10-16T03:26:52;97416.84;;;15.03;100.00
4735;BME280;2381;50.676;12.612;2022-10-16T03:29:56;97409.09;;;15.02;100.00
4735;BME280;2381;50.676;12.612;2022-10-16T03:32:58;97408.47;;;15.06;100.00
4735;BME280;2381;50.676;12.612;2022-10-16T03:36:01;97406.41;;;15.08;100.00
4735;BME280;2381;50.676;12.612;2022-10-16T03:39:04;97410.53;;;15.04;100.00
4735;BME280;2381;50.676;12.612;2022-10-16T03:42:07;97423.16;;;15.02;100.00
4735;BME280;2381;50.676;12.612;2022-10-16T03:45:11;97433.16;;;15.00;100.00
4735;BME280;2381;50.676;12.612;2022-10-16T03:48:14;97441.34;;;14.99;100.00
4735;BME280;2381;50.676;12.612;2022-10-16T03:51:16;97448.91;;;14.89;100.00
4735;BME280;2381;50.676;12.612;2022-10-16T03:54:19;97475.03;;;14.79;100.00
4735;BME280;2381;50.676;12.612;2022-10-16T03:57:23;97516.63;;;14.72;100.00
4735;BME280;2381;50.676;12.612;2022-10-16T04:00:27;97549.88;;;14.74;100.00
4735;BME280;2381;50.676;12.612;2022-10-16T04:03:30;97562.72;;;14.64;100.00
4735;BME280;2381;50.676;12.612;2022-10-16T04:06:33;97578.63;;;14.71;100.00
4735;BME280;2381;50.676;12.612;2022-10-16T04:09:36;97591.28;;;14.62;100.00
4735;BME280;2381;50.676;12.612;2022-10-16T04:12:38;97610.03;;;14.61;100.00
4735;BME280;2381;50.676;12.612;2022-10-16T04:15:42;97622.69;;;14.65;100.00
4735;BME280;2381;50.676;12.612;2022-10-16T04:18:46;97634.91;;;14.66;100.00
4735;BME280;2381;50.676;12.612;2022-10-16T04:21:49;97654.50;;;14.65;100.00
4735;BME280;2381;50.676;12.612;2022-10-16T04:24:52;97661.19;;;14.61;100.00
4735;BME280;2381;50.676;12.612;2022-10-16T04:27:54;97657.53;;;14.62;100.00
4735;BME280;2381;50.676;12.612;2022-10-16T04:30:59;97667.75;;;14.65;100.00
4735;BME280;2381;50.676;12.612;2022-10-16T04:34:01;97681.78;;;14.59;100.00
4735;BME280;2381;50.676;12.612;2022-10-16T04:37:04;97685.03;;;14.55;100.00
4735;BME280;2381;50.676;12.612;2022-10-16T04:40:07;97706.44;;;14.53;100.00
4735;BME280;2381;50.676;12.612;2022-10-16T04:43:10;97725.81;;;14.54;100.00
4735;BME280;2381;50.676;12.612;2022-10-16T04:46:14;97738.06;;;14.61;100.00
4735;BME280;2381;50.676;12.612;2022-10-16T04:49:17;97749.91;;;14.59;100.00
4735;BME280;2381;50.676;12.612;2022-10-16T04:52:19;97751.09;;;14.56;100.00
4735;BME280;2381;50.676;12.612;2022-10-16T04:55:23;97748.28;;;14.58;100.00
4735;BME280;2381;50.676;12.612;2022-10-16T04:58:25;97747.63;;;14.56;100.00
4735;BME280;2381;50.676;12.612;2022-10-16T05:01:29;97745.38;;;14.53;100.00
4735;BME280;2381;50.676;12.612;2022-10-16T05:04:32;97755.56;;;14.56;100.00
4735;BME280;2381;50.676;12.612;2022-10-16T05:07:35;97753.31;;;14.53;100.00
4735;BME280;2381;50.676;12.612;2022-10-16T05:10:37;97770.06;;;14.53;100.00
4735;BME280;2381;50.676;12.612;2022-10-16T05:13:40;97770.44;;;14.50;100.00
4735;BME280;2381;50.676;12.612;2022-10-16T05:16:44;97764.75;;;14.53;100.00
4735;BME280;2381;50.676;12.612;2022-10-16T05:19:49;97768.00;;;14.49;100.00
4735;BME280;2381;50.676;12.612;2022-10-16T05:22:52;97773.31;;;14.55;100.00
4735;BME280;2381;50.676;12.612;2022-10-16T05:25:55;97780.00;;;14.51;100.00
4735;BME280;2381;50.676;12.612;2022-10-16T05:28:59;97780.84;;;14.52;100.00
4735;BME280;2381;50.676;12.612;2022-10-16T05:32:04;97775.72;;;14.50;100.00
4735;BME280;2381;50.676;12.612;2022-10-16T05:35:07;97775.38;;;14.53;100.00
4735;BME280;2381;50.676;12.612;2022-10-16T05:38:13;97779.66;;;14.54;100.00
4735;BME280;2381;50.676;12.612;2022-10-16T05:41:16;97777.63;;;14.56;100.00
4735;BME280;2381;50.676;12.612;2022-10-16T05:44:22;97779.22;;;14.51;100.00
4735;BME280;2381;50.676;12.612;2022-10-16T05:47:26;97784.56;;;14.57;100.00
4735;BME280;2381;50.676;12.612;2022-10-16T05:50:30;97778.81;;;14.54;100.00
4735;BME280;2381;50.676;12.612;2022-10-16T05:53:33;97787.97;;;14.51;100.00
4735;BME280;2381;50.676;12.612;2022-10-16T05:56:36;97792.28;;;14.52;100.00
4735;BME280;2381;50.676;12.612;2022-10-16T05:59:39;97798.78;;;14.50;100.00
4735;BME280;2381;50.676;12.612;2022-10-16T06:02:43;97811.81;;;14.51;100.00
4735;BME280;2381;50.676;12.612;2022-10-16T06:05:45;97817.38;;;14.56;100.00
4735;BME280;2381;50.676;12.612;2022-10-16T06:08:48;97821.25;;;14.60;100.00
4735;BME280;2381;50.676;12.612;2022-10-16T06:11:51;97833.31;;;14.63;100.00
4735;BME280;2381;50.676;12.612;2022-10-16T06:14:54;97839.47;;;14.70;100.00
4735;BME280;2381;50.676;12.612;2022-10-16T06:17:58;97834.41;;;14.75;100.00
4735;BME280;2381;50.676;12.612;2022-10-16T06:21:06;97835.22;;;14.75;100.00
4735;BME280;2381;50.676;12.612;2022-10-16T06:24:09;97843.88;;;14.56;100.00
4735;BME280;2381;50.676;12.612;2022-10-16T06:27:12;97841.06;;;14.58;100.00
4735;BME280;2381;50.676;12.612;2022-10-16T06:30:14;97846.09;;;14.53;100.00
4735;BME280;2381;50.676;12.612;2022-10-16T06:33:18;97860.81;;;14.55;100.00
4735;BME280;2381;50.676;12.612;2022-10-16T06:36:21;97867.59;;;14.64;100.00
4735;BME280;2381;50.676;12.612;2022-10-16T06:39:24;97883.94;;;14.68;100.00
4735;BME280;2381;50.676;12.612;2022-10-16T06:42:27;97892.72;;;14.75;100.00
4735;BME280;2381;50.676;12.612;2022-10-16T06:45:30;97900.72;;;14.81;100.00
4735;BME280;2381;50.676;12.612;2022-10-16T06:48:34;97913.97;;;14.81;100.00
4735;BME280;2381;50.676;12.612;2022-10-16T06:51:37;97920.94;;;14.82;100.00
4735;BME280;2381;50.676;12.612;2022-10-16T06:54:44;97918.53;;;14.87;100.00
4735;BME280;2381;50.676;12.612;2022-10-16T06:57:47;97921.78;;;14.89;100.00
4735;BME280;2381;50.676;12.612;2022-10-16T07:00:54;97928.75;;;14.97;100.00
4735;BME280;2381;50.676;12.612;2022-10-16T07:03:59;97926.38;;;15.02;100.00
4735;BME280;2381;50.676;12.612;2022-10-16T07:07:02;97942.75;;;15.12;100.00
4735;BME280;2381;50.676;12.612;2022-10-16T07:10:09;97941.13;;;15.17;100.00
4735;BME280;2381;50.676;12.612;2022-10-16T07:13:12;97962.00;;;15.27;100.00
4735;BME280;2381;50.676;12.612;2022-10-16T07:16:16;97958.78;;;15.31;100.00
4735;BME280;2381;50.676;12.612;2022-10-16T07:19:21;97959.84;;;15.37;100.00
4735;BME280;2381;50.676;12.612;2022-10-16T07:22:23;97969.72;;;15.56;100.00
4735;BME280;2381;50.676;12.612;2022-10-16T07:25:26;97965.44;;;15.55;100.00
4735;BME280;2381;50.676;12.612;2022-10-16T07:28:29;97960.13;;;15.55;100.00
4735;BME280;2381;50.676;12.612;2022-10-16T07:31:32;97948.72;;;15.61;100.00
4735;BME280;2381;50.676;12.612;2022-10-16T07:34:37;97934.44;;;15.68;100.00
4735;BME280;2381;50.676;12.612;2022-10-16T07:37:39;97944.69;;;15.77;100.00
4735;BME280;2381;50.676;12.612;2022-10-16T07:40:46;97927.13;;;15.83;100.00
4735;BME280;2381;50.676;12.612;2022-10-16T07:43:49;97911.41;;;15.88;100.00
4735;BME280;2381;50.676;12.612;2022-10-16T07:46:52;97889.56;;;15.99;100.00
4735;BME280;2381;50.676;12.612;2022-10-16T07:49:56;97872.81;;;16.05;100.00
4735;BME280;2381;50.676;12.612;2022-10-16T07:52:59;97860.34;;;16.12;100.00
4735;BME280;2381;50.676;12.612;2022-10-16T07:56:02;97832.72;;;16.19;100.00
4735;BME280;2381;50.676;12.612;2022-10-16T07:59:05;97812.47;;;16.25;100.00
4735;BME280;2381;50.676;12.612;2022-10-16T08:02:08;97790.22;;;16.26;100.00
4735;BME280;2381;50.676;12.612;2022-10-16T08:05:12;97774.25;;;16.32;100.00
4735;BME280;2381;50.676;12.612;2022-10-16T08:08:16;97760.97;;;16.39;100.00
4735;BME280;2381;50.676;12.612;2022-10-16T08:11:19;97742.31;;;16.52;100.00
4735;BME280;2381;50.676;12.612;2022-10-16T08:14:21;97746.19;;;16.49;100.00
4735;BME280;2381;50.676;12.612;2022-10-16T08:17:24;97732.09;;;16.49;100.00
4735;BME280;2381;50.676;12.612;2022-10-16T08:20:29;97710.19;;;16.60;100.00
4735;BME280;2381;50.676;12.612;2022-10-16T08:23:32;97692.78;;;16.57;100.00
4735;BME280;2381;50.676;12.612;2022-10-16T08:26:35;97686.25;;;16.60;100.00
4735;BME280;2381;50.676;12.612;2022-10-16T08:29:38;97677.41;;;16.66;100.00
4735;BME280;2381;50.676;12.612;2022-10-16T08:32:40;97676.41;;;16.67;100.00
4735;BME280;2381;50.676;12.612;2022-10-16T08:35:51;97658.72;;;16.79;100.00
4735;BME280;2381;50.676;12.612;2022-10-16T08:38:54;97631.69;;;16.82;100.00
4735;BME280;2381;50.676;12.612;2022-10-16T08:42:01;97583.28;;;16.98;100.00
4735;BME280;2381;50.676;12.612;2022-10-16T08:45:13;97547.22;;;17.02;100.00
4735;BME280;2381;50.676;12.612;2022-10-16T08:48:20;97540.28;;;17.01;100.00
4735;BME280;2381;50.676;12.612;2022-10-16T08:51:26;97517.28;;;17.06;100.00
4735;BME280;2381;50.676;12.612;2022-10-16T08:54:31;97507.03;;;17.10;100.00
4735;BME280;2381;50.676;12.612;2022-10-16T08:57:38;97500.41;;;17.19;100.00
4735;BME280;2381;50.676;12.612;2022-10-16T09:00:41;97486.06;;;17.20;100.00
4735;BME280;2381;50.676;12.612;2022-10-16T09:03:48;97480.88;;;17.25;100.00
4735;BME280;2381;50.676;12.612;2022-10-16T09:06:56;97489.75;;;17.19;100.00
4735;BME280;2381;50.676;12.612;2022-10-16T09:10:03;97502.81;;;17.20;100.00
4735;BME280;2381;50.676;12.612;2022-10-16T09:13:14;97495.72;;;17.14;100.00
4735;BME280;2381;50.676;12.612;2022-10-16T09:16:19;97496.69;;;17.20;100.00
4735;BME280;2381;50.676;12.612;2022-10-16T09:19:25;97498.16;;;17.16;100.00
4735;BME280;2381;50.676;12.612;2022-10-16T09:22:33;97513.25;;;17.22;100.00
4735;BME280;2381;50.676;12.612;2022-10-16T09:25:36;97516.38;;;17.19;100.00
4735;BME280;2381;50.676;12.612;2022-10-16T09:28:41;97517.41;;;17.18;100.00
4735;BME280;2381;50.676;12.612;2022-10-16T09:31:44;97526.19;;;17.18;100.00
4735;BME280;2381;50.676;12.612;2022-10-16T09:34:47;97544.16;;;17.23;100.00
4735;BME280;2381;50.676;12.612;2022-10-16T09:37:52;97547.00;;;17.28;100.00
4735;BME280;2381;50.676;12.612;2022-10-16T09:40:56;97535.91;;;17.31;100.00
4735;BME280;2381;50.676;12.612;2022-10-16T09:44:04;97546.94;;;17.34;100.00
4735;BME280;2381;50.676;12.612;2022-10-16T09:47:12;97545.31;;;17.33;100.00
4735;BME280;2381;50.676;12.612;2022-10-16T09:50:20;97549.72;;;17.46;100.00
4735;BME280;2381;50.676;12.612;2022-10-16T09:53:25;97537.88;;;17.42;100.00
4735;BME280;2381;50.676;12.612;2022-10-16T09:56:29;97537.44;;;17.45;100.00
4735;BME280;2381;50.676;12.612;2022-10-16T09:59:33;97541.72;;;17.46;100.00
4735;BME280;2381;50.676;12.612;2022-10-16T10:02:37;97535.34;;;17.47;100.00
4735;BME280;2381;50.676;12.612;2022-10-16T10:05:40;97537.72;;;17.55;100.00
4735;BME280;2381;50.676;12.612;2022-10-16T10:09:02;97534.03;;;17.56;100.00
4735;BME280;2381;50.676;12.612;2022-10-16T10:12:05;97540.97;;;17.57;100.00
4735;BME280;2381;50.676;12.612;2022-10-16T10:15:23;97526.22;;;17.61;100.00
4735;BME280;2381;50.676;12.612;2022-10-16T10:18:28;97515.94;;;17.64;100.00
4735;BME280;2381;50.676;12.612;2022-10-16T10:21:33;97523.69;;;17.66;100.00
4735;BME280;2381;50.676;12.612;2022-10-16T10:24:37;97529.38;;;17.69;100.00
4735;BME280;2381;50.676;12.612;2022-10-16T10:27:43;97535.53;;;17.70;100.00
4735;BME280;2381;50.676;12.612;2022-10-16T10:30:51;97526.06;;;17.74;100.00
4735;BME280;2381;50.676;12.612;2022-10-16T10:33:58;97531.53;;;17.79;100.00
4735;BME280;2381;50.676;12.612;2022-10-16T10:37:04;97528.19;;;17.83;100.00
4735;BME280;2381;50.676;12.612;2022-10-16T10:40:15;97539.81;;;17.89;100.00
4735;BME280;2381;50.676;12.612;2022-10-16T10:43:28;97521.59;;;18.04;100.00
4735;BME280;2381;50.676;12.612;2022-10-16T10:46:35;97514.09;;;18.12;100.00
4735;BME280;2381;50.676;12.612;2022-10-16T10:49:49;97498.47;;;18.16;100.00
4735;BME280;2381;50.676;12.612;2022-10-16T10:52:59;97489.28;;;18.30;100.00
4735;BME280;2381;50.676;12.612;2022-10-16T10:56:07;97478.94;;;18.33;100.00
4735;BME280;2381;50.676;12.612;2022-10-16T10:59:19;97471.81;;;18.45;100.00
4735;BME280;2381;50.676;12.612;2022-10-16T11:02:29;97456.66;;;18.57;100.00
4735;BME280;2381;50.676;12.612;2022-10-16T11:05:40;97443.66;;;18.60;100.00
4735;BME280;2381;50.676;12.612;2022-10-16T11:08:45;97439.25;;;18.77;100.00
4735;BME280;2381;50.676;12.612;2022-10-16T11:11:54;97430.91;;;18.85;100.00
4735;BME280;2381;50.676;12.612;2022-10-16T11:15:00;97438.47;;;19.11;100.00
4735;BME280;2381;50.676;12.612;2022-10-16T11:18:05;97428.72;;;19.17;100.00
4735;BME280;2381;50.676;12.612;2022-10-16T11:21:09;97432.41;;;19.16;100.00
4735;BME280;2381;50.676;12.612;2022-10-16T11:24:15;97430.09;;;19.19;100.00
4735;BME280;2381;50.676;12.612;2022-10-16T11:27:21;97421.03;;;19.20;100.00
4735;BME280;2381;50.676;12.612;2022-10-16T11:30:26;97427.88;;;19.16;100.00
4735;BME280;2381;50.676;12.612;2022-10-16T11:33:30;97429.97;;;19.14;100.00
4735;BME280;2381;50.676;12.612;2022-10-16T11:36:37;97424.88;;;19.24;100.00
4735;BME280;2381;50.676;12.612;2022-10-16T11:39:41;97429.88;;;19.32;100.00
4735;BME280;2381;50.676;12.612;2022-10-16T11:42:49;97437.06;;;19.32;100.00
4735;BME280;2381;50.676;12.612;2022-10-16T11:45:54;97443.19;;;19.55;100.00
4735;BME280;2381;50.676;12.612;2022-10-16T11:49:00;97437.97;;;19.88;100.00
4735;BME280;2381;50.676;12.612;2022-10-16T11:52:07;97445.94;;;20.00;100.00
4735;BME280;2381;50.676;12.612;2022-10-16T11:55:14;97446.75;;;20.00;100.00
4735;BME280;2381;50.676;12.612;2022-10-16T11:58:22;97451.53;;;19.98;100.00
4735;BME280;2381;50.676;12.612;2022-10-16T12:01:28;97451.19;;;20.06;100.00
4735;BME280;2381;50.676;12.612;2022-10-16T12:04:33;97446.16;;;20.10;100.00
4735;BME280;2381;50.676;12.612;2022-10-16T12:07:48;97454.09;;;20.05;100.00
4735;BME280;2381;50.676;12.612;2022-10-16T12:10:53;97454.69;;;19.95;100.00
4735;BME280;2381;50.676;12.612;2022-10-16T12:14:05;97454.72;;;19.84;100.00
4735;BME280;2381;50.676;12.612;2022-10-16T12:17:23;97464.16;;;19.75;100.00
4735;BME280;2381;50.676;12.612;2022-10-16T12:20:27;97463.16;;;19.64;100.00
4735;BME280;2381;50.676;12.612;2022-10-16T12:23:32;97461.66;;;19.45;100.00
4735;BME280;2381;50.676;12.612;2022-10-16T12:26:37;97454.59;;;19.39;100.00
4735;BME280;2381;50.676;12.612;2022-10-16T12:29:42;97456.19;;;19.40;100.00
4735;BME280;2381;50.676;12.612;2022-10-16T12:32:52;97460.28;;;19.31;100.00
4735;BME280;2381;50.676;12.612;2022-10-16T12:35:56;97459.13;;;19.27;100.00
4735;BME280;2381;50.676;12.612;2022-10-16T12:39:00;97454.28;;;19.24;100.00
4735;BME280;2381;50.676;12.612;2022-10-16T12:42:04;97465.16;;;19.23;100.00
4735;BME280;2381;50.676;12.612;2022-10-16T12:45:25;97456.94;;;19.24;100.00
4735;BME280;2381;50.676;12.612;2022-10-16T12:48:29;97461.09;;;19.20;100.00
4735;BME280;2381;50.676;12.612;2022-10-16T12:51:52;97454.13;;;19.19;100.00
4735;BME280;2381;50.676;12.612;2022-10-16T12:54:57;97464.22;;;19.17;100.00
4735;BME280;2381;50.676;12.612;2022-10-16T12:58:05;97464.13;;;19.12;100.00
4735;BME280;2381;50.676;12.612;2022-10-16T13:01:16;97462.16;;;19.08;100.00
4735;BME280;2381;50.676;12.612;2022-10-16T13:04:23;97457.50;;;19.03;100.00
4735;BME280;2381;50.676;12.612;2022-10-16T13:07:35;97455.63;;;18.92;100.00
4735;BME280;2381;50.676;12.612;2022-10-16T13:10:44;97457.69;;;18.90;100.00
4735;BME280;2381;50.676;12.612;2022-10-16T13:13:54;97459.22;;;18.86;100.00
4735;BME280;2381;50.676;12.612;2022-10-16T13:17:04;97471.31;;;18.89;100.00
4735;BME280;2381;50.676;12.612;2022-10-16T13:20:12;97475.25;;;18.86;100.00
4735;BME280;2381;50.676;12.612;2022-10-16T13:23:21;97490.22;;;18.87;100.00
4735;BME280;2381;50.676;12.612;2022-10-16T13:26:31;97496.13;;;18.89;100.00
4735;BME280;2381;50.676;12.612;2022-10-16T13:29:39;97500.66;;;18.89;100.00
4735;BME280;2381;50.676;12.612;2022-10-16T13:32:45;97494.50;;;18.88;100.00
4735;BME280;2381;50.676;12.612;2022-10-16T13:35:49;97493.13;;;18.86;100.00
4735;BME280;2381;50.676;12.612;2022-10-16T13:39:00;97489.06;;;18.83;100.00
4735;BME280;2381;50.676;12.612;2022-10-16T13:42:06;97496.22;;;18.83;100.00
4735;BME280;2381;50.676;12.612;2022-10-16T13:45:17;97504.72;;;18.80;100.00
4735;BME280;2381;50.676;12.612;2022-10-16T13:48:21;97491.16;;;18.81;100.00
4735;BME280;2381;50.676;12.612;2022-10-16T13:51:24;97500.16;;;18.80;100.00
4735;BME280;2381;50.676;12.612;2022-10-16T13:54:27;97497.28;;;18.82;100.00
4735;BME280;2381;50.676;12.612;2022-10-16T13:57:31;97498.34;;;18.92;100.00
4735;BME280;2381;50.676;12.612;2022-10-16T14:00:34;97501.03;;;18.92;100.00
4735;BME280;2381;50.676;12.612;2022-10-16T14:03:38;97501.72;;;18.88;100.00
4735;BME280;2381;50.676;12.612;2022-10-16T14:06:42;97495.44;;;18.82;100.00
4735;BME280;2381;50.676;12.612;2022-10-16T14:09:47;97511.88;;;18.79;100.00
4735;BME280;2381;50.676;12.612;2022-10-16T14:12:54;97510.97;;;18.85;100.00
4735;BME280;2381;50.676;12.612;2022-10-16T14:15:57;97517.16;;;18.97;100.00
4735;BME280;2381;50.676;12.612;2022-10-16T14:19:04;97523.06;;;18.99;100.00
4735;BME280;2381;50.676;12.612;2022-10-16T14:22:18;97522.63;;;19.02;100.00
4735;BME280;2381;50.676;12.612;2022-10-16T14:25:24;97520.88;;;19.08;100.00
4735;BME280;2381;50.676;12.612;2022-10-16T14:28:29;97516.69;;;19.00;100.00
4735;BME280;2381;50.676;12.612;2022-10-16T14:31:32;97522.84;;;19.01;100.00
4735;BME280;2381;50.676;12.612;2022-10-16T14:34:39;97521.25;;;19.11;100.00
4735;BME280;2381;50.676;12.612;2022-10-16T14:37:43;97527.16;;;19.13;100.00
4735;BME280;2381;50.676;12.612;2022-10-16T14:40:46;97524.72;;;19.12;100.00
4735;BME280;2381;50.676;12.612;2022-10-16T14:43:50;97524.34;;;19.08;100.00
4735;BME280;2381;50.676;12.612;2022-10-16T14:46:54;97524.34;;;19.08;100.00
4735;BME280;2381;50.676;12.612;2022-10-16T14:49:58;97525.88;;;19.04;100.00
4735;BME280;2381;50.676;12.612;2022-10-16T14:53:01;97524.94;;;19.10;100.00
4735;BME280;2381;50.676;12.612;2022-10-16T14:56:05;97527.38;;;19.12;100.00
4735;BME280;2381;50.676;12.612;2022-10-16T14:59:08;97521.31;;;19.05;100.00
4735;BME280;2381;50.676;12.612;2022-10-16T15:02:18;97522.63;;;19.02;100.00
4735;BME280;2381;50.676;12.612;2022-10-16T15:05:23;97527.81;;;18.97;100.00
4735;BME280;2381;50.676;12.612;2022-10-16T15:08:27;97524.00;;;18.93;100.00
4735;BME280;2381;50.676;12.612;2022-10-16T15:11:30;97517.03;;;18.92;100.00
4735;BME280;2381;50.676;12.612;2022-10-16T15:14:34;97530.59;;;18.91;100.00
4735;BME280;2381;50.676;12.612;2022-10-16T15:17:37;97525.38;;;18.84;100.00
4735;BME280;2381;50.676;12.612;2022-10-16T15:20:41;97532.31;;;18.74;100.00
4735;BME280;2381;50.676;12.612;2022-10-16T15:23:43;97529.88;;;18.72;100.00
4735;BME280;2381;50.676;12.612;2022-10-16T15:26:46;97532.72;;;18.59;100.00
4735;BME280;2381;50.676;12.612;2022-10-16T15:29:50;97538.06;;;18.59;100.00
4735;BME280;2381;50.676;12.612;2022-10-16T15:32:53;97544.31;;;18.53;100.00
4735;BME280;2381;50.676;12.612;2022-10-16T15:35:57;97544.63;;;18.45;100.00
4735;BME280;2381;50.676;12.612;2022-10-16T15:38:59;97548.66;;;18.37;100.00
4735;BME280;2381;50.676;12.612;2022-10-16T15:42:02;97555.72;;;18.31;100.00
4735;BME280;2381;50.676;12.612;2022-10-16T15:45:08;97567.31;;;18.19;100.00
4735;BME280;2381;50.676;12.612;2022-10-16T15:48:11;97569.78;;;18.20;100.00
4735;BME280;2381;50.676;12.612;2022-10-16T15:51:16;97574.81;;;18.10;100.00
4735;BME280;2381;50.676;12.612;2022-10-16T15:54:19;97584.34;;;18.18;100.00
4735;BME280;2381;50.676;12.612;2022-10-16T15:57:24;97585.84;;;18.14;100.00
4735;BME280;2381;50.676;12.612;2022-10-16T16:00:27;97590.91;;;18.04;100.00
4735;BME280;2381;50.676;12.612;2022-10-16T16:03:30;97595.84;;;18.00;100.00
4735;BME280;2381;50.676;12.612;2022-10-16T16:06:35;97603.63;;;18.02;100.00
4735;BME280;2381;50.676;12.612;2022-10-16T16:09:38;97610.97;;;18.06;100.00
4735;BME280;2381;50.676;12.612;2022-10-16T16:12:41;97612.22;;;18.04;100.00
4735;BME280;2381;50.676;12.612;2022-10-16T16:15:44;97617.09;;;17.71;100.00
4735;BME280;2381;50.676;12.612;2022-10-16T16:18:47;97622.06;;;17.43;100.00